Time;durP1;ratioP1;P1;durP2;ratioP2;P2;SDS_P1;SDS_P2;PMS_P1;PMS_P2;Temp;Humidity;BMP_temperature;BMP_pressure;BME280_temperature;BME280_humidity;BME280_pressure;Samples;Min_cycle;Max_cycle;Signal;HPM_P1;HPM_P2
2023/01/30 00:00:29;;;;;;;13.75;5.85;;;0.60;99.30;;;;;;5095524;27;20028;-70
2023/01/30 00:02:55;;;;;;;13.40;6.30;;;0.80;98.90;;;;;;5087184;28;20035;-70
2023/01/30 00:05:21;;;;;;;10.55;6.18;;;0.90;98.80;;;;;;5099224;28;20070;-70
2023/01/30 00:07:46;;;;;;;14.02;5.35;;;0.90;99.00;;;;;;5074488;28;20916;-70
2023/01/30 00:10:12;;;;;;;11.15;5.78;;;0.50;99.30;;;;;;5098606;28;20062;-70
2023/01/30 00:12:38;;;;;;;8.40;5.03;;;0.30;99.70;;;;;;5096562;28;20036;-70
2023/01/30 00:15:05;;;;;;;12.25;6.97;;;0.30;99.90;;;;;;5099740;28;20031;-70
2023/01/30 00:17:30;;;;;;;10.88;5.55;;;0.30;99.60;;;;;;5095878;27;20023;-69
2023/01/30 00:19:56;;;;;;;11.20;5.60;;;0.30;99.70;;;;;;5091821;28;20024;-69
2023/01/30 00:22:22;;;;;;;13.95;7.50;;;0.30;99.70;;;;;;5102702;28;20125;-69
2023/01/30 00:24:47;;;;;;;12.68;5.72;;;0.70;98.90;;;;;;5101795;28;20076;-70
2023/01/30 00:27:13;;;;;;;11.45;5.93;;;0.80;98.70;;;;;;5097315;28;20376;-70
2023/01/30 00:29:38;;;;;;;14.63;6.63;;;0.70;98.70;;;;;;5105614;27;20019;-69
2023/01/30 00:32:04;;;;;;;10.68;5.78;;;0.70;98.40;;;;;;5097994;28;20063;-69
2023/01/30 00:34:30;;;;;;;11.95;5.72;;;0.60;98.60;;;;;;5091854;28;20015;-70
2023/01/30 00:36:55;;;;;;;11.85;5.82;;;0.60;98.70;;;;;;5101891;28;20048;-70
2023/01/30 00:39:21;;;;;;;10.45;5.47;;;0.50;99.00;;;;;;5096098;28;20032;-70
2023/01/30 00:47:15;;;;;;;12.83;5.83;;;0.30;99.00;;;;;;5101912;28;20189;-70
2023/01/30 00:49:41;;;;;;;10.75;5.32;;;0.10;99.30;;;;;;5097151;28;20103;-70
2023/01/30 00:52:07;;;;;;;11.18;5.53;;;0.00;99.70;;;;;;5101233;28;20039;-70
2023/01/30 00:54:33;;;;;;;15.93;5.80;;;0.00;99.70;;;;;;5103916;28;20019;-69
2023/01/30 00:56:58;;;;;;;11.75;4.78;;;0.10;99.40;;;;;;5099748;28;20078;-70
2023/01/30 00:59:25;;;;;;;9.88;5.13;;;0.20;99.20;;;;;;5092504;28;20027;-69
2023/01/30 01:01:50;;;;;;;9.82;4.63;;;0.40;98.50;;;;;;5094687;28;20149;-70
2023/01/30 01:04:16;;;;;;;10.77;5.05;;;0.20;98.80;;;;;;5092136;28;20115;-69
2023/01/30 01:06:42;;;;;;;12.32;5.55;;;0.30;98.70;;;;;;5100532;28;20023;-69
2023/01/30 01:09:07;;;;;;;9.07;4.18;;;0.30;98.50;;;;;;5096224;28;20032;-69
2023/01/30 01:11:33;;;;;;;12.07;4.45;;;0.50;98.20;;;;;;5097046;28;20394;-69
2023/01/30 01:14:01;;;;;;;10.20;4.78;;;0.40;98.30;;;;;;5103413;28;20030;-69
2023/01/30 01:16:28;;;;;;;10.75;5.18;;;0.40;98.20;;;;;;5091712;27;20028;-69
2023/01/30 01:18:54;;;;;;;8.90;4.35;;;0.50;97.90;;;;;;5098653;28;20398;-69
2023/01/30 01:21:20;;;;;;;8.68;4.22;;;0.40;98.10;;;;;;5108434;28;20035;-70
2023/01/30 01:23:57;;;;;;;11.30;5.60;;;0.50;98.10;;;;;;5096811;28;20027;-69
2023/01/30 01:26:22;;;;;;;10.77;5.28;;;0.50;97.90;;;;;;5090165;28;20080;-70
2023/01/30 01:28:48;;;;;;;11.10;5.80;;;0.50;97.90;;;;;;5092097;28;20024;-69
2023/01/30 01:31:15;;;;;;;12.85;5.13;;;0.20;98.40;;;;;;5095689;28;20122;-70
2023/01/30 01:33:41;;;;;;;10.25;5.20;;;0.10;98.60;;;;;;5088722;28;20024;-69
2023/01/30 01:36:07;;;;;;;9.52;4.53;;;0.30;98.30;;;;;;5096708;28;20472;-70
2023/01/30 01:38:33;;;;;;;9.27;4.18;;;0.30;98.00;;;;;;5099401;28;20068;-69
2023/01/30 01:41:04;;;;;;;8.60;4.38;;;0.30;98.20;;;;;;5101853;28;20115;-70
2023/01/30 01:43:33;;;;;;;9.80;4.38;;;0.30;98.60;;;;;;5095475;28;20024;-69
2023/01/30 01:46:21;;;;;;;6.63;4.13;;;0.10;98.30;;;;;;5097375;28;20022;-69
2023/01/30 01:48:59;;;;;;;9.77;4.53;;;0.10;98.30;;;;;;5104275;28;20035;-69
2023/01/30 01:51:38;;;;;;;6.85;3.60;;;0.20;98.20;;;;;;5105354;28;20385;-69
2023/01/30 01:54:07;;;;;;;9.48;4.22;;;0.30;97.90;;;;;;5105611;28;20035;-69
2023/01/30 01:56:34;;;;;;;9.00;4.25;;;0.20;98.00;;;;;;5095506;27;20034;-70
2023/01/30 01:59:29;;;;;;;10.23;4.78;;;0.50;97.50;;;;;;5105600;28;20028;-70
2023/01/30 02:02:02;;;;;;;8.93;3.58;;;0.30;97.70;;;;;;5101784;28;20062;-70
2023/01/30 02:07:19;;;;;;;7.72;4.07;;;0.20;98.00;;;;;;5102910;28;20077;-70
2023/01/30 02:09:44;;;;;;;9.45;4.28;;;0.20;98.00;;;;;;5100095;28;20023;-70
2023/01/30 02:12:13;;;;;;;7.47;3.95;;;0.00;98.10;;;;;;5107608;28;20417;-69
2023/01/30 02:14:39;;;;;;;7.22;3.50;;;-0.10;98.50;;;;;;5106707;28;20036;-69
2023/01/30 02:17:05;;;;;;;7.97;3.80;;;-0.10;98.50;;;;;;5107900;27;20126;-69
2023/01/30 02:20:05;;;;;;;8.15;3.20;;;-0.10;98.40;;;;;;5095866;28;20103;-70
2023/01/30 02:22:33;;;;;;;6.45;3.95;;;0.00;98.30;;;;;;5084246;28;20047;-70
2023/01/30 02:25:23;;;;;;;8.07;4.47;;;0.20;97.80;;;;;;5101004;28;20035;-69
2023/01/30 02:28:10;;;;;;;8.35;4.55;;;0.00;98.10;;;;;;5097448;28;20069;-70
2023/01/30 02:31:12;;;;;;;10.18;4.53;;;0.10;97.90;;;;;;5103617;27;20027;-69
2023/01/30 02:33:57;;;;;;;10.30;3.97;;;0.10;98.00;;;;;;5097808;27;20354;-70
2023/01/30 02:36:34;;;;;;;8.82;4.03;;;0.20;97.80;;;;;;5099425;28;20063;-70
2023/01/30 02:39:39;;;;;;;9.98;5.20;;;0.10;97.90;;;;;;5094354;28;20028;-70
2023/01/30 02:42:11;;;;;;;10.68;4.78;;;0.00;98.20;;;;;;5109133;28;20477;-70
2023/01/30 02:44:51;;;;;;;9.70;5.10;;;0.00;98.30;;;;;;5093799;28;20031;-69
2023/01/30 02:47:45;;;;;;;6.57;3.78;;;-0.20;98.30;;;;;;5096645;28;20081;-69
2023/01/30 02:50:28;;;;;;;7.68;4.30;;;0.00;98.20;;;;;;5103384;28;20039;-70
2023/01/30 02:52:54;;;;;;;8.80;4.55;;;-0.10;98.70;;;;;;5097405;28;20687;-69
2023/01/30 02:55:26;;;;;;;12.50;4.50;;;-0.10;98.30;;;;;;5103895;28;20036;-70
2023/01/30 02:57:52;;;;;;;9.98;3.88;;;-0.10;98.20;;;;;;5097370;28;20108;-70
2023/01/30 03:00:48;;;;;;;9.23;4.05;;;0.00;98.10;;;;;;5104992;28;20059;-69
2023/01/30 03:03:25;;;;;;;8.52;3.83;;;-0.10;98.30;;;;;;5102861;28;20039;-69
2023/01/30 03:05:51;;;;;;;6.80;3.75;;;-0.10;98.30;;;;;;5093781;28;20397;-69
2023/01/30 03:08:29;;;;;;;7.70;3.85;;;-0.30;98.70;;;;;;5104273;28;20043;-69
2023/01/30 03:11:04;;;;;;;7.50;3.55;;;-0.40;98.90;;;;;;5100122;28;20479;-69
2023/01/30 03:13:50;;;;;;;8.10;3.90;;;-0.20;98.60;;;;;;5100059;28;20019;-70
2023/01/30 03:16:37;;;;;;;9.00;4.30;;;-0.20;98.50;;;;;;5097015;28;20055;-69
2023/01/30 03:19:05;;;;;;;6.53;3.33;;;-0.10;98.20;;;;;;5098803;28;20015;-70
2023/01/30 03:21:32;;;;;;;7.93;4.45;;;0.00;97.90;;;;;;5096766;28;20035;-69
2023/01/30 03:23:57;;;;;;;10.23;3.80;;;0.20;97.60;;;;;;5097751;28;20062;-70
2023/01/30 03:26:31;;;;;;;8.43;3.78;;;0.00;97.70;;;;;;5109589;28;20028;-70
2023/01/30 03:28:56;;;;;;;9.85;4.07;;;0.10;97.80;;;;;;5095193;28;20015;-70
2023/01/30 03:31:22;;;;;;;10.15;3.88;;;0.10;97.90;;;;;;5094321;28;20097;-70
2023/01/30 03:33:48;;;;;;;8.82;3.35;;;0.10;97.90;;;;;;5093654;28;20067;-69
2023/01/30 03:36:14;;;;;;;8.57;3.85;;;-0.10;99.20;;;;;;5097855;28;20109;-70
2023/01/30 03:38:39;;;;;;;7.03;3.47;;;-0.20;99.60;;;;;;5099672;28;20045;-70
2023/01/30 03:41:05;;;;;;;6.78;3.85;;;-0.20;99.40;;;;;;5107216;27;20550;-69
2023/01/30 03:43:30;;;;;;;6.50;3.40;;;-0.30;98.90;;;;;;5104370;28;20034;-70
2023/01/30 03:45:56;;;;;;;7.88;3.50;;;-0.30;98.70;;;;;;5098176;28;20050;-70
2023/01/30 03:48:22;;;;;;;7.82;3.55;;;-0.30;98.60;;;;;;5095397;28;20051;-70
2023/01/30 03:50:48;;;;;;;7.10;3.42;;;-0.40;98.70;;;;;;5096044;28;20393;-70
2023/01/30 03:53:13;;;;;;;7.35;3.42;;;-0.60;98.90;;;;;;5098114;28;20024;-70
2023/01/30 03:55:39;;;;;;;9.73;3.53;;;-0.60;99.50;;;;;;5097975;28;20080;-69
2023/01/30 03:58:05;;;;;;;7.63;3.65;;;-0.50;99.40;;;;;;5101238;27;20080;-69
2023/01/30 04:00:31;;;;;;;8.27;4.18;;;-0.50;98.70;;;;;;5093659;28;20139;-70
2023/01/30 04:02:57;;;;;;;9.70;4.03;;;-0.10;98.30;;;;;;5094044;28;20084;-70
2023/01/30 04:05:23;;;;;;;10.07;4.15;;;-0.20;98.40;;;;;;5097831;28;20042;-70
2023/01/30 04:07:50;;;;;;;9.15;4.40;;;0.20;97.70;;;;;;5097784;28;20028;-70
2023/01/30 04:10:18;;;;;;;7.60;3.80;;;0.20;97.70;;;;;;5095682;28;20114;-70
2023/01/30 04:12:44;;;;;;;7.78;4.32;;;-0.10;97.90;;;;;;5088492;28;20036;-70
2023/01/30 04:15:10;;;;;;;7.18;3.40;;;-0.50;99.00;;;;;;5095443;28;20461;-70
2023/01/30 04:17:36;;;;;;;7.28;3.80;;;-0.60;98.80;;;;;;5099893;28;20024;-70
2023/01/30 04:20:02;;;;;;;7.00;3.72;;;-0.60;98.90;;;;;;5090622;28;20024;-70
2023/01/30 04:22:28;;;;;;;9.65;4.20;;;-0.70;99.60;;;;;;5092309;28;20039;-70
2023/01/30 04:24:53;;;;;;;5.32;2.75;;;-0.40;98.70;;;;;;5093441;28;20020;-69
2023/01/30 04:27:19;;;;;;;7.20;3.65;;;-0.60;99.00;;;;;;5085196;28;20028;-69
2023/01/30 04:29:44;;;;;;;8.68;4.22;;;-0.50;98.70;;;;;;5094078;28;20031;-69
2023/01/30 04:32:10;;;;;;;8.40;4.72;;;-0.40;98.50;;;;;;5100575;28;20051;-69
2023/01/30 04:34:36;;;;;;;8.10;4.03;;;-0.40;98.50;;;;;;5094747;28;20024;-70
2023/01/30 04:37:01;;;;;;;7.90;3.63;;;-0.60;98.70;;;;;;5085925;28;20055;-70
2023/01/30 04:39:27;;;;;;;6.57;3.53;;;-0.70;98.90;;;;;;5094300;28;20482;-70
2023/01/30 04:41:52;;;;;;;8.90;4.05;;;-0.60;98.90;;;;;;5091725;28;20032;-69
2023/01/30 04:44:18;;;;;;;10.18;4.20;;;-0.60;99.10;;;;;;5094350;28;20507;-70
2023/01/30 04:46:44;;;;;;;8.15;3.88;;;-0.60;98.90;;;;;;5089028;28;20055;-71
2023/01/30 04:49:10;;;;;;;6.68;3.58;;;-0.60;99.40;;;;;;5091820;28;20922;-69
2023/01/30 04:51:36;;;;;;;10.73;4.75;;;-0.70;99.90;;;;;;5098019;28;20036;-70
2023/01/30 04:54:02;;;;;;;10.13;4.43;;;-0.80;99.50;;;;;;5100595;28;20646;-70
2023/01/30 04:56:27;;;;;;;7.88;3.03;;;-0.60;99.00;;;;;;5103113;27;20118;-70
2023/01/30 04:58:53;;;;;;;6.43;3.45;;;-0.20;98.20;;;;;;5099075;28;20034;-69
2023/01/30 05:01:23;;;;;;;6.38;3.35;;;0.00;97.50;;;;;;5088357;28;20035;-69
2023/01/30 05:03:53;;;;;;;5.93;3.10;;;0.10;97.50;;;;;;5090342;28;20405;-70
2023/01/30 05:06:19;;;;;;;5.55;3.20;;;-0.30;98.00;;;;;;5092272;28;20031;-70
2023/01/30 05:08:52;;;;;;;7.95;3.53;;;-0.70;98.90;;;;;;5089033;28;20036;-70
2023/01/30 05:11:19;;;;;;;6.47;3.25;;;-0.50;99.20;;;;;;5080729;28;20554;-70
2023/01/30 05:13:44;;;;;;;8.30;4.18;;;-0.40;98.70;;;;;;5084767;28;20032;-70
2023/01/30 05:16:11;;;;;;;6.97;3.17;;;-0.50;98.70;;;;;;5089681;28;20148;-70
2023/01/30 05:18:37;;;;;;;9.38;4.30;;;-0.30;98.10;;;;;;5083924;27;20459;-69
2023/01/30 05:21:09;;;;;;;5.63;3.05;;;-0.30;98.10;;;;;;5091268;28;20042;-70
2023/01/30 05:23:35;;;;;;;8.45;3.25;;;-0.30;98.10;;;;;;5090246;28;20086;-70
2023/01/30 05:26:01;;;;;;;10.25;5.30;;;-0.40;98.30;;;;;;5088244;28;20490;-70
2023/01/30 05:28:28;;;;;;;8.40;3.75;;;-0.40;98.40;;;;;;5088593;28;20524;-69
2023/01/30 05:30:54;;;;;;;7.65;4.13;;;-0.70;99.10;;;;;;5081498;28;20040;-70
2023/01/30 05:33:20;;;;;;;8.50;4.03;;;-0.70;99.00;;;;;;5092477;28;20028;-70
2023/01/30 05:35:49;;;;;;;5.97;3.63;;;-0.20;97.90;;;;;;5094562;28;20481;-70
2023/01/30 05:38:15;;;;;;;6.93;3.58;;;-0.20;97.80;;;;;;5099881;28;20032;-70
2023/01/30 05:40:41;;;;;;;8.63;3.17;;;-0.20;97.90;;;;;;5089693;28;20039;-70
2023/01/30 05:43:08;;;;;;;8.60;3.60;;;-0.20;97.80;;;;;;5098702;28;20497;-70
2023/01/30 05:45:35;;;;;;;5.97;3.20;;;-0.10;97.60;;;;;;5091586;28;20023;-69
2023/01/30 05:48:02;;;;;;;8.55;3.33;;;0.10;97.10;;;;;;5091608;28;20021;-70
2023/01/30 05:50:28;;;;;;;6.93;3.42;;;0.10;97.10;;;;;;5095683;28;20056;-70
2023/01/30 05:52:54;;;;;;;6.55;3.50;;;0.10;97.10;;;;;;5093430;28;20044;-70
2023/01/30 05:55:19;;;;;;;8.65;3.83;;;0.20;96.90;;;;;;5092475;28;20363;-70
2023/01/30 05:57:45;;;;;;;8.75;3.25;;;0.20;96.70;;;;;;5099062;28;20024;-70
2023/01/30 06:00:11;;;;;;;7.72;2.92;;;0.20;96.80;;;;;;5086052;28;20027;-70
2023/01/30 06:02:37;;;;;;;5.65;3.00;;;0.10;96.90;;;;;;5099646;28;20272;-70
2023/01/30 06:05:02;;;;;;;5.57;3.33;;;0.10;97.10;;;;;;5086134;28;20032;-70
2023/01/30 06:07:28;;;;;;;7.97;3.53;;;0.10;97.20;;;;;;5084017;28;20030;-70
2023/01/30 06:09:53;;;;;;;6.15;3.22;;;0.10;97.00;;;;;;5094284;28;20110;-70
2023/01/30 06:12:19;;;;;;;6.93;3.47;;;0.10;96.80;;;;;;5084357;28;21677;-70
2023/01/30 06:14:45;;;;;;;6.03;2.72;;;0.20;97.00;;;;;;5090391;28;20522;-70
2023/01/30 06:17:10;;;;;;;6.57;2.75;;;0.20;96.90;;;;;;5083448;28;20123;-70
2023/01/30 06:19:36;;;;;;;6.70;3.17;;;-0.10;97.20;;;;;;5090796;28;20474;-70
2023/01/30 06:22:02;;;;;;;6.75;4.00;;;-0.10;97.40;;;;;;5090122;28;20027;-70
2023/01/30 06:24:28;;;;;;;12.77;4.03;;;-0.20;97.60;;;;;;5089735;28;20398;-69
2023/01/30 06:26:54;;;;;;;6.72;3.33;;;-0.20;97.70;;;;;;5096833;28;20023;-70
2023/01/30 06:29:19;;;;;;;8.00;4.07;;;-0.20;98.40;;;;;;5086596;28;20069;-70
2023/01/30 06:31:45;;;;;;;7.82;3.88;;;-0.20;98.70;;;;;;5089923;28;20028;-70
2023/01/30 06:34:11;;;;;;;8.43;3.72;;;-0.30;99.10;;;;;;5088964;28;20032;-70
2023/01/30 06:36:37;;;;;;;8.43;5.00;;;-0.30;99.60;;;;;;5094094;28;20297;-70
2023/01/30 06:39:03;;;;;;;8.75;4.20;;;-0.70;99.70;;;;;;5093837;28;20035;-70
2023/01/30 06:41:29;;;;;;;9.40;5.18;;;-0.90;99.90;;;;;;5091454;28;20027;-70
2023/01/30 06:43:54;;;;;;;9.65;5.55;;;-1.10;99.90;;;;;;5085717;28;20123;-70
2023/01/30 06:46:20;;;;;;;9.30;4.45;;;-1.00;99.90;;;;;;5083684;28;20081;-70
2023/01/30 06:48:46;;;;;;;9.55;4.70;;;-1.00;99.90;;;;;;5091823;28;20058;-70
2023/01/30 06:51:12;;;;;;;8.10;3.80;;;-1.00;99.90;;;;;;5099513;28;20039;-70
2023/01/30 06:53:38;;;;;;;8.85;4.30;;;-1.00;99.90;;;;;;5087229;28;20051;-70
2023/01/30 06:56:04;;;;;;;10.80;4.30;;;-1.00;99.90;;;;;;5090170;28;20070;-69
2023/01/30 06:58:29;;;;;;;8.60;4.75;;;-0.90;99.90;;;;;;5091700;28;20854;-71
2023/01/30 07:00:55;;;;;;;6.28;2.75;;;-0.90;99.90;;;;;;5095972;28;20578;-70
2023/01/30 07:03:21;;;;;;;7.30;3.73;;;-0.50;99.00;;;;;;5104704;28;20077;-71
2023/01/30 07:05:47;;;;;;;9.52;4.38;;;-0.50;99.50;;;;;;5095797;28;20050;-70
2023/01/30 07:08:15;;;;;;;6.95;3.10;;;-0.60;99.60;;;;;;5083747;28;20036;-70
2023/01/30 07:10:41;;;;;;;7.15;3.58;;;-0.30;99.10;;;;;;5086488;28;20070;-70
2023/01/30 07:13:07;;;;;;;8.25;3.65;;;-0.40;99.00;;;;;;5087466;28;20036;-70
2023/01/30 07:15:32;;;;;;;8.38;4.35;;;-0.50;99.40;;;;;;5099687;28;20039;-71
2023/01/30 07:17:58;;;;;;;7.18;3.20;;;-0.50;99.80;;;;;;5088647;27;20126;-70
2023/01/30 07:20:24;;;;;;;9.90;5.07;;;-0.30;99.90;;;;;;5102786;28;20081;-70
2023/01/30 07:22:54;;;;;;;7.95;4.53;;;-0.30;99.80;;;;;;5092975;27;20019;-70
2023/01/30 07:25:24;;;;;;;6.93;3.60;;;-0.40;99.40;;;;;;5090172;28;20019;-70
2023/01/30 07:27:55;;;;;;;7.50;4.07;;;-0.30;99.70;;;;;;5093801;28;20106;-71
2023/01/30 07:30:21;;;;;;;6.07;3.30;;;-0.40;99.60;;;;;;5092095;28;20042;-70
2023/01/30 07:32:54;;;;;;;8.93;4.22;;;-0.50;99.50;;;;;;5093859;28;20028;-71
2023/01/30 07:35:21;;;;;;;8.00;3.35;;;-0.30;99.50;;;;;;5085989;28;20032;-70
2023/01/30 07:37:48;;;;;;;9.48;3.75;;;-0.10;98.80;;;;;;5096592;28;20058;-71
2023/01/30 07:40:15;;;;;;;13.63;6.47;;;0.00;98.60;;;;;;5095861;28;20527;-70
2023/01/30 07:42:41;;;;;;;12.93;5.82;;;-0.10;99.30;;;;;;5090991;28;20089;-70
2023/01/30 07:45:07;;;;;;;11.55;4.95;;;-0.20;99.10;;;;;;5098992;28;20067;-70
2023/01/30 07:47:32;;;;;;;8.30;4.72;;;-0.10;99.80;;;;;;5091141;28;20031;-70
2023/01/30 07:49:58;;;;;;;10.55;4.82;;;-0.10;99.30;;;;;;5083485;28;20408;-70
2023/01/30 07:52:24;;;;;;;9.80;4.28;;;-0.10;99.20;;;;;;5092396;28;21196;-70
2023/01/30 07:54:49;;;;;;;8.75;3.95;;;-0.10;98.90;;;;;;5095288;28;20437;-70
2023/01/30 07:57:15;;;;;;;9.68;4.53;;;0.00;99.40;;;;;;5094649;28;20070;-70
2023/01/30 07:59:41;;;;;;;6.07;3.53;;;0.00;99.00;;;;;;5096911;28;20034;-70
2023/01/30 08:02:09;;;;;;;8.70;3.97;;;0.10;98.70;;;;;;5090433;28;20092;-70
2023/01/30 08:04:35;;;;;;;7.95;4.03;;;0.30;98.50;;;;;;5086223;28;20043;-70
2023/01/30 08:07:01;;;;;;;8.88;3.80;;;0.30;98.60;;;;;;5092546;28;20027;-71
2023/01/30 08:09:26;;;;;;;9.02;4.28;;;0.30;99.00;;;;;;5086563;28;20118;-70
2023/01/30 08:11:52;;;;;;;8.32;3.88;;;0.20;98.90;;;;;;5093123;28;20470;-71
2023/01/30 08:14:18;;;;;;;6.45;3.28;;;0.40;97.60;;;;;;5093407;28;20076;-70
2023/01/30 08:16:44;;;;;;;9.07;4.32;;;0.70;96.60;;;;;;5086386;28;20039;-70
2023/01/30 08:19:09;;;;;;;13.32;5.55;;;0.90;96.80;;;;;;5089320;27;20115;-70
2023/01/30 08:21:35;;;;;;;14.63;6.72;;;0.60;97.90;;;;;;5082714;28;20024;-70
2023/01/30 08:24:01;;;;;;;8.70;4.35;;;0.40;97.90;;;;;;5096425;28;20513;-70
2023/01/30 08:26:26;;;;;;;7.20;4.20;;;0.40;97.80;;;;;;5091832;28;20019;-71
2023/01/30 08:28:54;;;;;;;8.57;4.03;;;0.70;96.90;;;;;;5089049;28;20032;-71
2023/01/30 08:31:20;;;;;;;11.15;4.20;;;0.80;97.80;;;;;;5088409;28;20036;-70
2023/01/30 08:33:46;;;;;;;15.35;6.57;;;0.70;97.90;;;;;;5087905;28;20077;-71
2023/01/30 08:36:12;;;;;;;8.40;4.40;;;0.40;98.90;;;;;;5086857;28;20059;-71
2023/01/30 08:38:38;;;;;;;11.40;4.93;;;0.60;97.00;;;;;;5094564;28;20453;-71
2023/01/30 08:41:05;;;;;;;12.70;5.88;;;0.80;98.20;;;;;;5090072;28;20373;-72
2023/01/30 08:43:31;;;;;;;12.88;7.50;;;0.80;98.60;;;;;;5084313;28;20043;-70
2023/01/30 08:45:56;;;;;;;11.73;6.07;;;0.90;98.50;;;;;;5089785;28;20381;-70
2023/01/30 08:48:22;;;;;;;11.43;6.18;;;0.90;98.20;;;;;;5095649;28;20019;-70
2023/01/30 08:50:53;;;;;;;14.30;6.45;;;1.00;98.20;;;;;;5084954;28;20518;-70
2023/01/30 08:53:19;;;;;;;14.25;5.38;;;1.10;98.20;;;;;;5091581;27;20031;-71
2023/01/30 08:55:45;;;;;;;10.27;4.47;;;1.10;97.80;;;;;;5098495;28;20043;-70
2023/01/30 08:58:10;;;;;;;8.75;4.45;;;1.20;97.50;;;;;;5093877;28;20081;-70
2023/01/30 09:00:38;;;;;;;7.80;4.00;;;1.40;97.10;;;;;;5083630;28;20485;-70
2023/01/30 09:03:03;;;;;;;8.30;3.50;;;1.40;96.50;;;;;;5089872;28;20032;-69
2023/01/30 09:05:29;;;;;;;14.40;4.65;;;1.50;96.20;;;;;;5090863;28;20249;-70
2023/01/30 09:07:55;;;;;;;7.53;3.92;;;1.50;96.20;;;;;;5089566;28;20631;-70
2023/01/30 09:10:23;;;;;;;7.20;3.58;;;1.50;96.70;;;;;;5089219;28;20024;-70
2023/01/30 09:12:48;;;;;;;6.18;3.63;;;1.50;96.40;;;;;;5092727;28;20049;-69
2023/01/30 09:15:14;;;;;;;12.13;4.53;;;1.50;96.00;;;;;;5086050;28;20386;-71
2023/01/30 09:17:40;;;;;;;21.60;7.28;;;1.50;96.80;;;;;;5092665;28;20042;-70
2023/01/30 09:20:07;;;;;;;17.73;9.02;;;1.40;97.90;;;;;;5086020;28;20516;-70
2023/01/30 09:22:33;;;;;;;57.75;31.58;;;1.60;98.00;;;;;;5090534;28;20073;-70
2023/01/30 09:24:59;;;;;;;18.15;9.55;;;1.50;97.80;;;;;;5091946;28;20036;-70
2023/01/30 09:27:24;;;;;;;11.82;6.30;;;1.40;98.30;;;;;;5091019;28;20135;-70
2023/01/30 09:29:50;;;;;;;12.10;5.68;;;1.30;97.80;;;;;;5092010;28;20024;-70
2023/01/30 09:32:16;;;;;;;13.00;5.68;;;1.30;97.60;;;;;;5094275;28;20128;-71
2023/01/30 09:34:41;;;;;;;14.82;6.20;;;1.30;97.90;;;;;;5093871;28;20054;-70
2023/01/30 09:37:07;;;;;;;17.25;8.23;;;1.20;98.20;;;;;;5090054;28;20064;-69
2023/01/30 09:39:32;;;;;;;17.27;6.80;;;1.10;98.80;;;;;;5092827;28;20020;-70
2023/01/30 09:42:04;;;;;;;13.73;6.93;;;1.00;98.70;;;;;;5086007;28;20031;-70
2023/01/30 09:44:45;;;;;;;13.43;7.05;;;1.00;98.60;;;;;;5090972;28;20701;-70
2023/01/30 09:47:38;;;;;;;11.52;6.60;;;1.00;98.80;;;;;;5093741;28;20036;-70
2023/01/30 09:50:22;;;;;;;13.35;6.93;;;1.10;98.70;;;;;;5089757;28;20027;-70
2023/01/30 09:52:53;;;;;;;8.80;4.70;;;1.20;98.10;;;;;;5095557;28;20040;-70
2023/01/30 09:55:25;;;;;;;6.40;3.20;;;1.20;96.80;;;;;;5097960;28;20055;-71
2023/01/30 09:57:51;;;;;;;5.80;3.03;;;1.30;96.00;;;;;;5091602;28;20730;-72
2023/01/30 10:00:36;;;;;;;10.65;3.47;;;1.40;96.20;;;;;;5090571;28;20046;-71
2023/01/30 10:03:08;;;;;;;14.15;6.65;;;1.30;96.60;;;;;;5089598;28;20028;-72
2023/01/30 10:06:04;;;;;;;13.15;6.07;;;1.30;96.30;;;;;;5092639;28;20046;-72
2023/01/30 10:08:42;;;;;;;9.52;4.22;;;1.40;95.50;;;;;;5089033;28;20040;-70
2023/01/30 10:11:26;;;;;;;7.55;3.92;;;1.50;95.50;;;;;;5086376;28;20046;-71
2023/01/30 10:14:22;;;;;;;8.43;3.95;;;1.60;95.50;;;;;;5095955;28;20506;-71
2023/01/30 10:17:06;;;;;;;9.52;3.92;;;1.70;96.20;;;;;;5094710;28;20024;-72
2023/01/30 10:20:09;;;;;;;8.75;4.13;;;1.70;96.50;;;;;;5092022;28;20646;-71
2023/01/30 10:22:53;;;;;;;13.10;4.93;;;1.50;95.80;;;;;;5090377;28;20077;-72
2023/01/30 10:25:31;;;;;;;13.57;4.90;;;1.70;96.50;;;;;;5098783;28;20031;-72
2023/01/30 10:28:31;;;;;;;13.20;5.97;;;1.90;96.60;;;;;;5099125;28;20520;-71
2023/01/30 10:31:04;;;;;;;9.45;4.90;;;1.90;96.40;;;;;;5097801;28;20385;-71
2023/01/30 10:33:44;;;;;;;9.60;4.45;;;2.00;96.80;;;;;;5099511;28;20035;-71
2023/01/30 10:36:26;;;;;;;11.82;4.88;;;2.00;96.30;;;;;;5095645;28;20130;-71
2023/01/30 10:38:53;;;;;;;10.25;4.55;;;2.00;96.20;;;;;;5093010;28;20108;-71
2023/01/30 10:41:22;;;;;;;8.02;4.50;;;2.10;95.80;;;;;;5098770;28;20407;-71
2023/01/30 10:44:03;;;;;;;8.63;4.32;;;2.10;95.80;;;;;;5093950;28;20031;-71
2023/01/30 10:46:59;;;;;;;14.90;4.30;;;2.10;95.40;;;;;;5094447;28;20457;-71
2023/01/30 10:49:43;;;;;;;10.95;3.90;;;2.20;95.20;;;;;;5100233;28;20032;-68
2023/01/30 10:52:40;;;;;;;13.98;4.53;;;2.40;95.50;;;;;;5089674;28;20486;-72
2023/01/30 10:55:06;;;;;;;9.30;5.03;;;2.30;95.80;;;;;;5096226;28;20066;-72
2023/01/30 10:57:54;;;;;;;9.27;5.07;;;2.50;95.90;;;;;;5093739;28;20105;-71
2023/01/30 11:00:42;;;;;;;12.70;4.28;;;2.80;95.50;;;;;;5078166;28;20123;-71
2023/01/30 11:03:16;;;;;;;7.25;3.17;;;2.80;95.40;;;;;;5091110;28;20111;-71
2023/01/30 11:05:50;;;;;;;5.50;3.22;;;2.90;94.50;;;;;;5098319;28;20028;-71
2023/01/30 11:08:23;;;;;;;7.60;3.63;;;2.80;94.50;;;;;;5091753;28;20107;-71
2023/01/30 11:10:50;;;;;;;9.73;4.15;;;2.80;93.70;;;;;;5096752;28;20038;-71
2023/01/30 11:13:29;;;;;;;5.35;2.78;;;2.90;94.00;;;;;;5088462;28;20036;-71
2023/01/30 11:16:02;;;;;;;6.30;3.30;;;3.10;93.00;;;;;;5097688;28;20054;-69
2023/01/30 11:18:28;;;;;;;5.88;3.10;;;3.10;93.20;;;;;;5094891;28;20058;-69
2023/01/30 11:21:25;;;;;;;6.93;3.53;;;3.10;93.00;;;;;;5092815;28;20035;-71
2023/01/30 11:23:52;;;;;;;6.78;3.55;;;3.30;93.10;;;;;;5063684;28;20036;-71
2023/01/30 11:26:34;;;;;;;7.35;3.22;;;3.30;92.60;;;;;;5092466;28;20028;-69
2023/01/30 11:29:15;;;;;;;7.35;3.22;;;3.30;92.70;;;;;;5092701;28;20039;-69
2023/01/30 11:31:40;;;;;;;6.80;3.13;;;3.50;92.30;;;;;;5090271;28;20040;-71
2023/01/30 11:34:15;;;;;;;14.07;3.88;;;3.70;92.10;;;;;;5090561;28;20035;-71
2023/01/30 11:36:41;;;;;;;10.27;3.90;;;3.70;92.50;;;;;;5095262;27;20063;-72
2023/01/30 11:39:10;;;;;;;9.93;4.35;;;3.90;92.90;;;;;;5093083;28;20326;-72
2023/01/30 11:41:35;;;;;;;9.52;4.93;;;3.80;93.20;;;;;;5091959;28;20104;-71
2023/01/30 11:44:03;;;;;;;8.48;4.32;;;3.90;93.30;;;;;;5097401;28;20607;-71
2023/01/30 11:46:37;;;;;;;13.48;5.72;;;4.10;93.00;;;;;;5096553;28;20032;-72
2023/01/30 11:49:15;;;;;;;10.57;4.70;;;4.10;92.70;;;;;;5096621;28;20058;-71
2023/01/30 11:51:43;;;;;;;8.68;3.78;;;4.10;92.90;;;;;;5094880;28;20359;-71
2023/01/30 11:54:27;;;;;;;8.60;4.25;;;4.10;92.30;;;;;;5096951;28;20542;-71
2023/01/30 11:56:55;;;;;;;8.07;4.05;;;4.10;92.50;;;;;;5096959;28;20070;-72
2023/01/30 11:59:37;;;;;;;12.73;4.75;;;4.20;92.30;;;;;;5096057;28;20060;-71
2023/01/30 12:02:24;;;;;;;9.98;3.72;;;4.20;91.90;;;;;;5097055;28;20353;-71
2023/01/30 12:05:35;;;;;;;7.65;4.07;;;4.20;92.00;;;;;;5093055;28;20030;-71
2023/01/30 12:08:19;;;;;;;6.65;3.22;;;4.50;92.10;;;;;;5075371;28;20600;-72
2023/01/30 12:10:53;;;;;;;6.90;3.40;;;4.40;91.30;;;;;;5095833;28;20369;-71
2023/01/30 12:13:37;;;;;;;5.72;3.28;;;4.40;91.10;;;;;;5095868;28;20126;-71
2023/01/30 12:16:16;;;;;;;11.27;4.00;;;4.60;91.70;;;;;;5092952;28;20032;-71
2023/01/30 12:19:11;;;;;;;7.65;3.45;;;5.00;91.50;;;;;;5096160;28;20110;-72
2023/01/30 12:21:49;;;;;;;10.75;4.07;;;5.20;91.30;;;;;;5091293;28;20661;-72
2023/01/30 12:24:35;;;;;;;8.27;4.15;;;5.20;91.10;;;;;;5092953;28;20035;-69
2023/01/30 12:27:08;;;;;;;8.43;3.80;;;5.20;91.30;;;;;;5091931;28;20058;-72
2023/01/30 12:30:11;;;;;;;8.70;4.50;;;5.30;91.30;;;;;;5093259;28;20040;-71
2023/01/30 12:32:37;;;;;;;8.85;4.40;;;5.40;91.50;;;;;;5021609;28;20075;-71
2023/01/30 12:35:15;;;;;;;7.88;4.28;;;5.40;91.30;;;;;;5078100;28;20119;-72
2023/01/30 12:38:02;;;;;;;7.60;3.83;;;5.40;90.90;;;;;;5095178;28;20058;-72
2023/01/30 12:40:59;;;;;;;9.65;4.07;;;5.30;91.20;;;;;;5091783;28;20036;-74
2023/01/30 12:43:54;;;;;;;10.98;4.03;;;5.20;90.80;;;;;;5090730;28;20048;-71
2023/01/30 12:46:57;;;;;;;7.63;3.78;;;5.30;91.40;;;;;;5084549;28;20065;-72
2023/01/30 12:50:20;;;;;;;8.70;4.40;;;5.50;91.50;;;;;;5089683;28;20024;-71
2023/01/30 12:53:01;;;;;;;7.50;3.25;;;5.70;90.80;;;;;;5042363;28;20199;-72
2023/01/30 12:55:39;;;;;;;9.50;4.50;;;5.50;90.60;;;;;;5082130;28;20040;-71
2023/01/30 12:58:22;;;;;;;10.60;5.55;;;5.60;91.10;;;;;;5090177;28;20081;-72
2023/01/30 13:01:12;;;;;;;8.32;4.15;;;5.70;91.00;;;;;;5095371;28;20032;-72
2023/01/30 13:03:54;;;;;;;7.60;3.88;;;5.70;90.90;;;;;;5092487;28;20039;-73
2023/01/30 13:06:38;;;;;;;9.95;4.30;;;5.70;90.90;;;;;;5088945;28;20553;-72
2023/01/30 13:09:04;;;;;;;10.38;4.43;;;5.70;90.70;;;;;;5086075;28;20034;-73
2023/01/30 13:11:47;;;;;;;8.43;4.65;;;5.80;91.30;;;;;;5086915;28;20024;-72
2023/01/30 13:14:34;;;;;;;5.55;3.25;;;5.90;90.90;;;;;;5095064;28;20055;-73
2023/01/30 13:17:15;;;;;;;6.70;3.50;;;5.70;90.40;;;;;;5094716;28;20034;-73
2023/01/30 13:20:03;;;;;;;8.95;3.90;;;5.70;90.30;;;;;;5085244;28;20024;-72